Effective Sunday, March 17, 2024, the National Weather Service National Data Buoy Center will discontinue its Dial-A-Buoy Interactive Voice Response system. For more information, see Service Change Notice 24-06 (PDF).

Station 51004 (LLNR 28005) - SOUTHEAST HAWAII - 205 NM Southeast of Hilo, HI Image indicating link to RSS feed of recent meteorological observations for station 51004


Conditions at 51004 as of
(5:40 am HAST)
1540 GMT on 02/24/2024:
     

Click on the graph icon in the table below to see a time series plot of the last five days of that observation.

5-day plot - Wind Direction Wind Direction (WDIR):ENE ( 70 deg true )
5-day plot - Wind Speed Wind Speed (WSPD): 15.5 kts
5-day plot - Wind Gust Wind Gust (GST): 17.5 kts
5-day plot - Air Temperature Air Temperature (ATMP): 74.3 °F
5-day plot - Water Temperature Water Temperature (WTMP): 76.1 °F
5-day plot - Dew Point Dew Point (DEWP): 62.4 °F
5-day plot - Wind Speed at 10 Meters Wind Speed at 10 meters (WSPD10M): 15.5 kts
5-day plot - Wind Speed at 20 Meters Wind Speed at 20 meters (WSPD20M): 17.5 kts
5-day plot -  Wind Speed, Wind Gust and Atmospheric Pressure Combined plot of Wind Speed, Gust, and Air Pressure
Supplemental Measurements
Highest 1-minute Wind Speed
Time (HAST)5-day plot - 1-Minute Wind Speed WSPD 5-day plot - 1-Minute Wind Direction WDIR
5:32 am 15.5 kts-
Previous observations
TIME
(HAST)
5-day plot - Wind Direction
WDIR
 
5-day plot - Wind Speed
WSPD
kts
5-day plot - Wind Gust
GST
kts
5-day plot - Wave Height
WVHT
ft
5-day plot - Dominant Wave Period
DPD
sec
5-day plot - Average Wave Period
APD
sec
5-day plot - Mean Wave Direction
MWD
 
5-day plot - Atmospheric Pressure
PRES
in
5-day plot - Pressure Tendency
PTDY
in
5-day plot - Air Temperature
ATMP
°F
5-day plot - Water Temperature
WTMP
°F
5-day plot - Dew Point
DEWP
°F
5-day plot - Salinity
SAL
psu
5-day plot - Visibility
VIS
nmi
5-day plot - Tide (above MLLW)
TIDE
ft
2024-02-24 05:30 am E 13.6 17.5------ 74.3 76.1 62.8---
2024-02-24 05:20 amENE 13.6 17.5 8.2 76.5 E-- 74.1 76.1 63.1---
2024-02-24 05:10 am E 13.6 17.5 8.2-6.5 E-- 74.1 76.1 63.0---
2024-02-24 05:00 amENE 15.5 17.5------ 74.1 76.1 62.8---
2024-02-24 04:50 amENE 15.5 19.4 7.9 86.3 E-- 74.1 76.1 63.7---
2024-02-24 04:40 amENE 15.5 19.4 7.9-6.3 E-- 74.3 76.1 64.2---
2024-02-24 04:30 amENE 15.5 19.4------ 74.1 76.1 63.1---
2024-02-24 04:20 amENE 15.5 19.4 7.9 76.1ENE-- 74.1 76.1 63.5---
2024-02-24 04:10 amENE 15.5 19.4 7.9-6.1ENE-- 74.3 76.1 64.4---
2024-02-24 04:00 amENE 17.5 19.4------ 74.1 76.1 64.2---
2024-02-24 03:50 amENE 17.5 21.4 7.2 76.0 E-- 74.3 76.1 64.6---
2024-02-24 03:40 amENE 15.5 19.4 7.2-6.0 E-- 74.3 76.1 64.6---
2024-02-24 03:30 amENE 15.5 21.4------ 73.9 76.1 65.3---
2024-02-24 03:20 am E 9.7 15.5 7.9 76.2 E-- 72.7 76.1 66.2---
2024-02-24 03:10 am E 11.7 15.5 7.9-6.2 E-- 72.5 76.1 65.8---
2024-02-24 03:00 am E 13.6 17.5------ 72.0 76.1 65.8---
2024-02-24 02:50 am E 13.6 19.4 7.9 76.4 E-- 71.6 76.1 66.4---
2024-02-24 02:40 amESE 15.5 21.4------ 72.0 76.1 66.7---
2024-02-24 02:30 am E 13.6 17.5------ 72.3 76.1 66.7---
2024-02-24 02:20 am E 15.5 19.4 7.9 76.1 E-- 72.0 76.1 66.2---
2024-02-24 02:10 am E 15.5 19.4------ 71.4 76.1 67.5---
2024-02-24 02:00 amESE 13.6 17.5------ 70.3 76.1 67.3---
2024-02-24 01:50 amESE 15.5 21.4 7.9 76.2ENE-- 70.2 76.1 66.9---
2024-02-24 01:40 amESE 19.4 23.3------ 71.1 76.1 66.9---
2024-02-24 01:30 am E 15.5 19.4------ 72.0 76.1 66.9---
2024-02-24 01:20 am E 15.5 23.3 7.2 86.0ESE-- 72.3 76.1 66.2---
2024-02-24 01:10 am E 17.5 23.3 7.2-6.0ESE-- 71.1 76.1 65.5---
2024-02-24 01:00 am E 13.6 19.4------ 71.4 76.1 67.1---
2024-02-24 12:50 am E 13.6 17.5 7.5 76.1 E-- 70.3 76.1 66.6---
2024-02-24 12:40 amESE 13.6 21.4------ 71.4 76.1 66.4---
2024-02-24 12:30 am NE 13.6 17.5------ 72.1 76.1 66.6---
2024-02-24 12:20 amENE 13.6 19.4 7.5 86.1 E-- 71.4 76.1 66.2---
2024-02-24 12:10 amENE 15.5 21.4 7.5-6.1 E-- 71.6 76.1 66.2---
2024-02-24 12:00 amENE 13.6 17.5------ 71.4 76.1 65.7---
2024-02-23 11:50 pm NE 13.6 19.4 7.5 76.2ENE-- 71.2 76.1 65.8---
2024-02-23 11:40 pmENE 19.4 23.3 7.5-6.2ENE-- 70.9 76.1 65.8---
2024-02-23 11:30 pmENE 19.4 23.3------ 70.7 76.1 66.7---
2024-02-23 11:20 pmENE 19.4 23.3 7.9 76.1 E-- 70.3 76.1 66.7---
2024-02-23 11:10 pmENE 19.4 23.3 7.9-6.1 E-- 69.8 76.1 66.6---
2024-02-23 11:00 pm E 21.4 27.2------ 70.7 76.1 66.6---
2024-02-23 10:50 pmENE 15.5 19.4 7.5 86.0 E-- 71.2 76.1 66.7---
2024-02-23 10:40 pmENE 15.5 21.4 7.5-6.0 E-- 71.2 76.1 66.0---
2024-02-23 10:30 pmENE 15.5 19.4------ 70.9 76.1 65.5---
2024-02-23 10:20 pmENE 19.4 25.3 7.9 86.3ESE-- 70.7 76.1 65.8---
2024-02-23 10:10 pmENE 17.5 27.2 7.9-6.3ESE-- 72.1 76.1 65.5---
2024-02-23 10:00 pmENE 15.5 21.4------ 72.0 76.1 64.2---
2024-02-23 09:50 pmENE 19.4 27.2 7.9 146.3 N-- 72.5 76.1 64.0---
2024-02-23 09:40 pmENE 15.5 23.3 7.9-6.3 N-- 72.3 76.1 65.1---
2024-02-23 09:30 pmENE 17.5 23.3------ 72.0 76.3 65.8---
2024-02-23 09:20 pm NE 13.6 17.5 8.2 86.3ESE-- 72.0 76.3 65.8---
2024-02-23 09:10 pm NE 11.7 17.5 8.2-6.3ESE-- 71.2 76.3 65.5---
2024-02-23 09:00 pmENE 15.5 19.4------ 69.8 76.3 66.0---
2024-02-23 08:50 pmENE 19.4 29.1 7.9 86.1ESE-- 69.4 76.3 65.7---
2024-02-23 08:40 pmENE 25.3 31.1------ 71.8 76.3 66.0---
2024-02-23 08:30 pmENE 21.4 27.2------ 73.8 76.3 64.4---
2024-02-23 08:20 pmENE 19.4 23.3 7.5 86.1 E-- 73.6 76.3 66.4---
2024-02-23 08:10 pmENE 19.4 23.3 7.5-6.1 E-- 73.8 76.3 66.4---
2024-02-23 08:00 pmENE 17.5 23.3------ 73.6 76.3 65.3---
2024-02-23 07:50 pmENE 19.4 25.3 7.5 76.0 E-- 73.2 76.3 64.6---
2024-02-23 07:40 pmENE 21.4 27.2------ 73.6 76.3 65.3---
2024-02-23 07:30 pmENE 19.4 25.3------ 74.5 76.3 65.3---
2024-02-23 07:20 pmENE 19.4 23.3 7.2 65.8 E-- 74.3 76.3 64.4---
2024-02-23 07:10 pmENE 19.4 25.3 7.2-5.8 E-- 74.3 76.3 64.4---
2024-02-23 07:00 pmENE 17.5 21.4------ 74.3 76.3 63.9---
2024-02-23 06:50 pmENE 17.5 21.4 7.2 86.0 E-- 74.3 76.3 64.0---
2024-02-23 06:40 pmENE 17.5 23.3 7.2-6.0 E-- 74.3 76.3 64.0---
2024-02-23 06:30 pmENE 17.5 21.4------ 74.3 76.3 64.2---
2024-02-23 06:20 pmENE 17.5 21.4 7.5 86.3 E-- 74.5 76.3 64.0---
2024-02-23 06:10 pmENE 17.5 21.4 7.5-6.3 E-- 74.5 76.3 64.0---
2024-02-23 06:00 pmENE 17.5 21.4------ 74.5 76.3 63.5---
2024-02-23 05:50 pmENE 17.5 25.3 8.5 86.6ESE-- 74.5 76.3 63.3---
2024-02-23 05:40 pmENE 15.5 21.4------ 74.1 76.3 64.0---
2024-02-23 05:30 pmENE 15.5 19.4------ 73.9 76.3 63.9---
2024-02-23 05:20 pmENE 15.5 19.4 7.9 86.3 E-- 73.9 76.3 63.5---
2024-02-23 05:10 pmENE 15.5 19.4 7.9-6.3 E-- 73.8 76.3 62.8---
2024-02-23 05:00 pmENE 15.5 19.4------ 73.4 76.3 62.6---
2024-02-23 04:50 pm NE 15.5 19.4 6.9 85.7 E-- 73.4 76.3 62.4---
2024-02-23 04:40 pmENE 17.5 23.3------ 73.6 76.3 61.7---
2024-02-23 04:30 pm NE 21.4 25.3------ 73.4 76.3 63.7---
2024-02-23 04:20 pmENE 21.4 25.3 7.5 86.2 E-- 73.4 76.3 64.6---
2024-02-23 04:10 pmENE 21.4 25.3 7.5-6.2 E-- 73.6 76.3 64.8---
2024-02-23 04:00 pmENE 17.5 23.3------ 74.3 76.3 64.9---
2024-02-23 03:50 pmENE 17.5 21.4 7.2 65.9 E-- 74.1 76.3 64.0---
2024-02-23 03:40 pmENE 17.5 21.4------ 74.3 76.3 63.9---
2024-02-23 03:30 pmENE 17.5 21.4------ 73.9 76.3 63.1---
2024-02-23 03:20 pmENE 17.5 21.4 7.5 86.1 E-- 73.9 76.3 63.9---
2024-02-23 03:10 pmENE 17.5 21.4 7.5-6.1 E-- 74.1 76.3 63.9---
2024-02-23 03:00 pmENE 17.5 21.4------ 74.3 76.3 63.3---
2024-02-23 02:50 pmENE 17.5 21.4 7.2 95.9 E-- 74.5 76.3 62.2---
2024-02-23 02:40 pmENE 17.5 23.3------ 74.7 76.3 61.9---
2024-02-23 02:30 pmENE 17.5 21.4------ 74.7 76.3 61.9---
2024-02-23 02:20 pmENE 17.5 21.4 8.2 146.3 N-- 74.7 76.3 62.2---
2024-02-23 02:10 pmENE 15.5 19.4 8.2-6.3 N-- 74.5 76.3 62.2---
2024-02-23 02:00 pmENE 17.5 21.4------ 74.1 76.3 62.8---
2024-02-23 01:50 pmENE 17.5 23.3 7.9 146.2 NE-- 73.9 76.3 63.1---
2024-02-23 01:40 pmENE 19.4 23.3------ 73.9 76.3 64.0---
2024-02-23 01:10 pmENE 17.5 25.3 7.9-6.2 E-- 74.8 76.3 63.1---
2024-02-23 01:00 pmENE 17.5 21.4------ 74.7 76.3 62.8---
2024-02-23 12:50 pmENE 17.5 21.4 7.5 146.1NNE-- 74.5 76.1 63.5---
2024-02-23 12:40 pmENE 17.5 21.4 7.5-6.1NNE-- 74.5 76.1 63.9---
2024-02-23 12:30 pmENE 19.4 23.3------ 74.3 76.1 64.4---
2024-02-23 12:20 pm E 17.5 23.3 7.9 136.2NNE-- 74.5 76.1 65.5---
2024-02-23 12:10 pmENE 17.5 21.4 7.9-6.2NNE-- 75.0 76.1 63.0---
2024-02-23 12:00 pmENE 17.5 21.4------ 75.2 76.1 62.4---
2024-02-23 11:50 amENE 17.5 21.4 7.5 145.9 NE-- 75.0 76.1 62.2---
2024-02-23 11:40 am E 15.5 21.4 7.5-5.9 NE-- 74.8 76.1 63.7---
2024-02-23 11:30 am E 17.5 21.4------ 74.8 76.1 63.3---
2024-02-23 11:20 am E 17.5 21.4 7.9 156.1 NW-- 74.7 76.1 64.0---
2024-02-23 11:10 am E 17.5 21.4 7.9-6.1 NW-- 74.8 76.1 64.8---
2024-02-23 11:00 amENE 17.5 23.3------ 74.7 76.1 63.0---
2024-02-23 10:50 amENE 17.5 21.4 8.2 86.4 E-- 74.7- 63.5---
2024-02-23 10:40 amENE 17.5 21.4------ 74.8- 62.6---
2024-02-23 10:30 amENE 17.5 23.3------ 75.0 76.1 61.5---
2024-02-23 10:20 amENE 17.5 21.4 8.5 156.4 N-- 75.0 76.1 61.9---
2024-02-23 10:10 amENE 17.5 23.3 8.5-6.4 N-- 74.8 76.1 62.4---
2024-02-23 10:00 amENE 19.4 21.4------ 74.5 76.1 64.2---
2024-02-23 09:50 amENE 17.5 21.4 8.2 136.6NNE-- 74.5 76.1 64.9---
2024-02-23 09:40 amENE 17.5 23.3 8.2-6.6NNE-- 74.7 76.1 64.6---
2024-02-23 09:30 amENE 17.5 21.4------ 74.7 76.1 64.8---
2024-02-23 09:20 amENE 17.5 21.4 7.9 76.3 E-- 74.8 76.1 64.2---
2024-02-23 09:10 amENE 17.5 21.4 7.9-6.3 E-- 74.8 76.1 63.5---
2024-02-23 09:00 amENE 15.5 19.4------ 74.8 76.1 63.5---
2024-02-23 08:50 amENE 15.5 19.4 8.2 76.3 E-- 75.0 76.1 63.3---
2024-02-23 08:40 amENE 17.5 21.4------ 74.8 76.1 63.3---
2024-02-23 08:30 amENE 17.5 21.4------ 74.8 76.1 63.5---
2024-02-23 08:20 amENE 17.5 21.4 7.9 156.5 NW-- 74.7 76.1 64.0---
2024-02-23 08:10 amENE 17.5 19.4------ 74.5 76.1 64.0---
2024-02-23 08:00 amENE 17.5 21.4------ 74.7 76.1 64.6---
2024-02-23 07:50 amENE 17.5 21.4 8.2 86.5 E-- 74.5 76.1 64.0---
2024-02-23 07:40 amENE 15.5 19.4------ 74.1 76.1 64.0---
2024-02-23 07:30 am NE 15.5 21.4------ 73.6 76.1 64.9---
2024-02-23 07:20 amENE 15.5 19.4 7.9 136.6 N-- 74.1 76.1 64.8---
2024-02-23 07:10 amENE 13.6 17.5 7.9-6.6 N-- 74.1 76.1 63.9---
2024-02-23 07:00 amENE 15.5 21.4------ 73.9 76.1 62.1---
2024-02-23 06:50 am NE 17.5 23.3 8.2 156.4NNE-- 73.6 76.1 61.9---
2024-02-23 06:40 amENE 15.5 21.4 8.2-6.4NNE-- 72.1 76.1 64.0---
2024-02-23 06:30 am NE 19.4 29.1------ 72.7 76.1 64.2---
2024-02-23 06:20 amNNE 15.5 17.5 8.5 96.4 E-- 72.7 75.9 62.8---
2024-02-23 06:10 amNNE 17.5 21.4 8.5-6.4 E-- 73.4 75.9 62.2---
2024-02-23 06:00 am NE 17.5 23.3------ 73.9 75.9 61.2---
2024-02-23 05:50 amENE 19.4 25.3 8.5 86.7 E-- 73.9 75.9 62.1---

Detailed Wave Summary
for 51004 as of (5:10 am HAST)
1510 GMT on 02/24/2024:

These wave data are displayed in rounded times.

     

Click on the graph icon in the table below to see a time series plot of the last five days of that observation.

5-day plot - Significant Wave Height Significant Wave Height (WVHT): 8.2 ft
5-day plot - Swell Height Swell Height (SwH): 5.6 ft
5-day plot - Swell Period Swell Period (SwP): 12.1 sec
5-day plot - Swell Direction Swell Direction (SwD): N
5-day plot - Wind Wave Height Wind Wave Height (WWH): 5.6 ft
5-day plot - Wind Wave Period Wind Wave Period (WWP): 7.1 sec
5-day plot - Wind Wave Direction Wind Wave Direction (WWD): E
5-day plot - Wave Steepness Wave Steepness (STEEPNESS): STEEP
5-day plot - Average Wave Period Average Wave Period (APD): 6.5 sec
Previous observations
TIME
(HAST)
5-day plot - Wave Height
WVHT
ft
5-day plot - Swell Height
SwH
ft
5-day plot - Swell Period
SwP
sec
5-day plot - Swell Direction
SwD
 
5-day plot - Wind Wave Height
WWH
ft
5-day plot - Wind Wave Period
WWP
sec
5-day plot - Wind Wave Direction
WWD
 
5-day plot - Wave Steepness
STEEPNESS
 
5-day plot - Average Wave Period
APD
sec
2024-02-24 04:40 am 7.9 5.6 7.7 E 5.6 6.2 ENE STEEP 6.3
2024-02-24 04:10 am 7.9 4.6 12.9 N 6.6 6.7 ENEVERY_STEEP 6.1
2024-02-24 03:40 am 7.2 3.9 12.9NNW 6.2 7.1 E STEEP 6.0
2024-02-24 03:10 am 7.9 6.9 6.7 E 3.6 4.8 EVERY_STEEP 6.2
2024-02-24 02:40 am 7.9 5.6 12.9 N 5.6 7.1 E STEEP 6.4
2024-02-24 02:10 am 7.9 4.6 12.9NNW 6.6 7.1 E STEEP 6.1
2024-02-24 01:40 am 7.9 3.3 12.9NNW 7.2 6.7 ENEVERY_STEEP 6.2
2024-02-24 01:10 am 7.2 3.6 12.9 N 6.2 8.3 ESE STEEP 6.0
2024-02-24 12:40 am 7.5 5.6 7.1 E 4.9 5.9 E STEEP 6.1
2024-02-24 12:10 am 7.5 4.3 12.9 N 6.2 7.7 E STEEP 6.1
2024-02-23 11:40 pm 7.5 4.3 12.9 N 6.2 7.1 ENE STEEP 6.2
2024-02-23 11:10 pm 7.9 3.6 13.8NNE 6.9 7.1 E STEEP 6.1
2024-02-23 10:40 pm 7.5 4.6 8.3 E 5.9 7.1 E STEEP 6.0
2024-02-23 10:10 pm 7.9 4.3 13.8 E 6.6 7.7 ESE STEEP 6.3
2024-02-23 09:40 pm 7.9 4.9 13.8 N 6.2 7.7 ESE AVERAGE 6.3
2024-02-23 09:10 pm 8.2 6.9 8.3ESE 4.3 5.6 E STEEP 6.3
2024-02-23 08:40 pm 7.9 4.3 13.8NNW 6.6 8.3 ESE STEEP 6.1
2024-02-23 08:10 pm 7.5 3.9 13.8 N 6.6 7.7 E STEEP 6.1
2024-02-23 07:40 pm 7.5 3.6 9.1 E 6.6 7.1 E STEEP 6.0
2024-02-23 07:10 pm 7.2 3.6 10.8ENE 6.2 5.6 EVERY_STEEP 5.8
2024-02-23 06:40 pm 7.2 4.3 11.4NNE 5.6 7.7 E STEEP 6.0
2024-02-23 06:10 pm 7.5 4.3 12.9 N 6.2 8.3 E STEEP 6.3
2024-02-23 05:40 pm 8.5 5.6 8.3ESE 6.2 5.6 ENE STEEP 6.6
2024-02-23 05:10 pm 7.9 5.6 7.7 E 5.6 6.2 ENE STEEP 6.3
2024-02-23 04:40 pm 6.9 4.3 7.7 E 5.2 6.7 E STEEP 5.7
2024-02-23 04:10 pm 7.5 3.9 12.9NNW 6.6 8.3 E STEEP 6.2
2024-02-23 03:40 pm 7.2 3.9 12.1 N 6.2 6.2 EVERY_STEEP 5.9
2024-02-23 03:10 pm 7.5 3.9 12.1 NE 6.6 7.7 E STEEP 6.1
2024-02-23 02:40 pm 7.2 4.9 9.1 E 5.2 6.7 E AVERAGE 5.9
2024-02-23 02:10 pm 8.2 5.6 13.8 N 5.9 6.2 E AVERAGE 6.3
2024-02-23 01:40 pm 7.9 4.3 13.8 NE 6.6 8.3 E AVERAGE 6.2
2024-02-23 01:10 pm 7.9 4.6 12.9 N 6.2 7.7 E STEEP 6.2
2024-02-23 12:40 pm 7.5 5.2 13.8NNE 5.6 6.7 E AVERAGE 6.1
2024-02-23 12:10 pm 7.9 4.9 12.9NNE 5.9 7.7 E AVERAGE 6.2
2024-02-23 11:40 am 7.5 4.6 13.8 NE 5.9 7.1 E AVERAGE 5.9
2024-02-23 11:10 am 7.9 5.2 14.8 NW 5.9 7.7 E AVERAGE 6.1
2024-02-23 10:40 am 8.2 4.6 13.8WNW 6.9 7.7 E STEEP 6.4
2024-02-23 10:10 am 8.5 5.2 14.8 N 6.6 6.7 E AVERAGE 6.4
2024-02-23 09:40 am 8.2 5.9 12.9NNE 5.6 7.7 E SWELL 6.6
2024-02-23 09:10 am 7.9 4.6 9.1 E 6.2 7.1 E STEEP 6.3
2024-02-23 08:40 am 8.2 4.6 12.9NNE 6.9 7.1 E STEEP 6.3
2024-02-23 08:10 am 7.9 5.2 14.8 NW 6.2 7.1 E AVERAGE 6.5
2024-02-23 07:40 am 8.2 5.9 7.7 E 5.6 6.7 E STEEP 6.5
2024-02-23 07:10 am 7.9 6.2 12.9 N 4.6 5.9 ENE SWELL 6.6
2024-02-23 06:40 am 8.2 5.9 14.8NNE 5.6 6.7 E SWELL 6.4
2024-02-23 06:10 am 8.5 5.2 9.1 E 6.9 6.7 ENE AVERAGE 6.4

Plot of wave energy versus frequency (and period)